Create Tblcommutelog Verified Points Advance Search
| # | Trip ID | Id Commuter | Trip Date | Trip Num | Current Lat | Current Lng | Delta Distance | Current Time | Activity | Activity Confidence | Current Speed | |
|---|---|---|---|---|---|---|---|---|---|---|---|---|
| 73601 | 250730_768224_16489269_0838 | 768224 | (not set) | (not set) | 38.811426687595 | -77.04891195174 | 0.3753 | 2025-07-30 08:45:39 | on_foot | 100 | 0.58562142927392 | |
| 73602 | 250730_780743_6461772_0845 | 780743 | (not set) | (not set) | 38.881406402252 | -77.084606364441 | 0 | 2025-07-30 08:45:38 | unknown | 100 | 0.47833200711687 | |
| 73603 | 250730_784212_0_0826 | 784212 | (not set) | (not set) | 39.039595998759 | -75.456837255839 | 15.3735 | 2025-07-30 08:45:39 | in_vehicle | 100 | 15.959301545862 | |
| 73604 | 250730_780743_6461772_0845 | 780743 | (not set) | (not set) | 38.881406402252 | -77.084606364441 | 0 | 2025-07-30 08:45:38 | unknown | 100 | 0.47833200711687 | |
| 73605 | 250730_772550_16459259_0839 | 772550 | (not set) | (not set) | 38.890213381148 | -76.97616152272 | 2.5578 | 2025-07-30 08:45:39 | in_vehicle | 100 | -0.44703925898772 | |
| 73606 | 250730_753800_6439769_0821 | 753800 | (not set) | (not set) | 38.918132375026 | -77.012061778586 | 4.7632 | 2025-07-30 08:45:39 | on_bicycle | 100 | 2.6867059465162 | |
| 73607 | 250730_770933_16500693_0809 | 770933 | (not set) | (not set) | 38.931299930173 | -77.122743027659 | 12.3327 | 2025-07-30 08:45:41 | unknown | 100 | 8.3283413949413 | |
| 73608 | 250730_781438_16415274_0841 | 781438 | (not set) | (not set) | 38.9241829 | -77.0662516 | 0.4671 | 2025-07-30 08:45:40 | in_vehicle | 100 | 2.9236367537797 | |
| 73609 | 250730_785415_16477364_0817 | 785415 | (not set) | (not set) | 39.30233384497 | -76.665849892961 | 1.5605 | 2025-07-30 08:45:41 | in_vehicle | 100 | 4.9978989154828 | |
| 73610 | 250730_782325_6461772_0833 | 782325 | (not set) | (not set) | 38.92323571329 | -77.044962173756 | 0.4297 | 2025-07-30 08:45:41 | on_foot | 100 | 1.931209598827 | |
| 73611 | 250730_753586_16500033_0821 | 753586 | (not set) | (not set) | 38.915382600807 | -77.019678627994 | 3.0332 | 2025-07-30 08:45:42 | in_vehicle | 100 | 3.4287911164358 | |
| 73612 | 250730_753586_16500033_0821 | 753586 | (not set) | (not set) | 38.915382600807 | -77.019678627994 | 3.0332 | 2025-07-30 08:45:42 | in_vehicle | 100 | 3.4287911164358 | |
| 73613 | 250730_775158_16513674_0845 | 775158 | (not set) | (not set) | 38.843146365146 | -77.049397091975 | 0.6015 | 2025-07-30 08:45:42 | in_vehicle | 100 | 9.4951138608993 | |
| 73614 | 250730_775158_16513674_0845 | 775158 | (not set) | (not set) | 38.843146365146 | -77.049397091975 | 0.6015 | 2025-07-30 08:45:42 | in_vehicle | 100 | 9.4951138608993 | |
| 73615 | 250730_775158_16513674_0845 | 775158 | (not set) | (not set) | 38.843146365146 | -77.049397091975 | 0.6015 | 2025-07-30 08:45:42 | in_vehicle | 100 | 9.4951138608993 | |
| 73616 | 250730_775158_16513674_0845 | 775158 | (not set) | (not set) | 38.843146365146 | -77.049397091975 | 0.6015 | 2025-07-30 08:45:42 | in_vehicle | 100 | 9.4951138608993 | |
| 73617 | 250730_785681_16514248_0832 | 785681 | (not set) | (not set) | 39.083523612891 | -77.147315967896 | 3.4269 | 2025-07-30 08:45:43 | unknown | 100 | 4.8950798859156 | |
| 73618 | 250730_769309_6461772_0828 | 769309 | (not set) | (not set) | 38.933705413009 | -77.23486639122 | 12.8572 | 2025-07-30 08:45:45 | in_vehicle | 100 | 12.508158466477 | |
| 73619 | 250730_785112_6438355_0832 | 785112 | (not set) | (not set) | 38.959449711189 | -77.085237529248 | 0.5795 | 2025-07-30 08:45:47 | on_foot | 100 | -0.44703925898772 | |
| 73620 | 250730_780745_16421763_0753 | 780745 | (not set) | (not set) | 38.933547762118 | -77.233812824568 | 26.7951 | 2025-07-30 08:45:48 | in_vehicle | 100 | 12.722737310791 |